sensor_id;sensor_type;location;lat;lon;timestamp;pressure;altitude;pressure_sealevel;temperature;humidity
59063;BME280;44851;45.648;9.004;2023-03-19T00:01:16;99225.38;;;10.12;50.50
59063;BME280;44851;45.648;9.004;2023-03-19T00:03:42;99227.44;;;10.08;50.08
59063;BME280;44851;45.648;9.004;2023-03-19T00:06:07;99231.31;;;9.93;50.03
59063;BME280;44851;45.648;9.004;2023-03-19T00:08:33;99227.50;;;9.97;50.44
59063;BME280;44851;45.648;9.004;2023-03-19T00:10:58;99230.81;;;9.99;50.85
59063;BME280;44851;45.648;9.004;2023-03-19T00:13:23;99232.22;;;9.82;50.55
59063;BME280;44851;45.648;9.004;2023-03-19T00:15:49;99233.50;;;9.88;50.49
59063;BME280;44851;45.648;9.004;2023-03-19T00:18:15;99233.50;;;9.88;51.08
59063;BME280;44851;45.648;9.004;2023-03-19T00:20:42;99233.22;;;9.91;50.32
59063;BME280;44851;45.648;9.004;2023-03-19T00:23:07;99222.50;;;9.84;50.32
59063;BME280;44851;45.648;9.004;2023-03-19T00:25:33;99219.47;;;9.79;49.82
59063;BME280;44851;45.648;9.004;2023-03-19T00:27:58;99220.84;;;9.83;50.08
59063;BME280;44851;45.648;9.004;2023-03-19T00:30:24;99224.50;;;9.71;49.59
59063;BME280;44851;45.648;9.004;2023-03-19T00:32:49;99221.97;;;9.60;49.84
59063;BME280;44851;45.648;9.004;2023-03-19T00:35:15;99228.44;;;9.65;49.47
59063;BME280;44851;45.648;9.004;2023-03-19T00:37:40;99228.94;;;9.59;49.32
59063;BME280;44851;45.648;9.004;2023-03-19T00:40:06;99229.44;;;9.53;49.85
59063;BME280;44851;45.648;9.004;2023-03-19T00:42:32;99229.19;;;9.56;50.34
59063;BME280;44851;45.648;9.004;2023-03-19T00:44:58;99218.66;;;9.57;50.42
59063;BME280;44851;45.648;9.004;2023-03-19T00:47:23;99224.66;;;9.58;50.17
59063;BME280;44851;45.648;9.004;2023-03-19T00:49:49;99219.66;;;9.66;49.79
59063;BME280;44851;45.648;9.004;2023-03-19T00:52:15;99221.25;;;9.57;49.73
59063;BME280;44851;45.648;9.004;2023-03-19T00:54:40;99226.44;;;9.57;50.07
59063;BME280;44851;45.648;9.004;2023-03-19T00:57:06;99226.75;;;9.64;50.21
59063;BME280;44851;45.648;9.004;2023-03-19T00:59:31;99223.47;;;9.62;50.51
59063;BME280;44851;45.648;9.004;2023-03-19T01:01:57;99227.28;;;9.58;49.94
59063;BME280;44851;45.648;9.004;2023-03-19T01:04:22;99228.63;;;9.52;49.77
59063;BME280;44851;45.648;9.004;2023-03-19T01:06:51;99227.72;;;9.63;49.35
59063;BME280;44851;45.648;9.004;2023-03-19T01:09:16;99221.19;;;9.48;50.12
59063;BME280;44851;45.648;9.004;2023-03-19T01:11:42;99222.28;;;9.45;50.33
59063;BME280;44851;45.648;9.004;2023-03-19T01:14:08;99213.19;;;9.40;50.62
59063;BME280;44851;45.648;9.004;2023-03-19T01:16:33;99212.63;;;9.36;50.55
59063;BME280;44851;45.648;9.004;2023-03-19T01:18:59;99215.63;;;9.20;50.77
59063;BME280;44851;45.648;9.004;2023-03-19T01:21:25;99209.09;;;9.26;50.79
59063;BME280;44851;45.648;9.004;2023-03-19T01:23:51;99214.44;;;9.24;50.25
59063;BME280;44851;45.648;9.004;2023-03-19T01:26:17;99212.06;;;9.33;50.27
59063;BME280;44851;45.648;9.004;2023-03-19T01:28:43;99217.81;;;9.57;50.62
59063;BME280;44851;45.648;9.004;2023-03-19T01:31:09;99209.66;;;9.41;50.52
59063;BME280;44851;45.648;9.004;2023-03-19T01:33:35;99208.69;;;9.42;50.75
59063;BME280;44851;45.648;9.004;2023-03-19T01:36:02;99205.09;;;9.54;50.86
59063;BME280;44851;45.648;9.004;2023-03-19T01:38:29;99196.56;;;9.52;51.64
59063;BME280;44851;45.648;9.004;2023-03-19T01:40:55;99201.16;;;9.39;52.18
59063;BME280;44851;45.648;9.004;2023-03-19T01:43:27;99192.19;;;9.32;51.95
59063;BME280;44851;45.648;9.004;2023-03-19T01:49:00;99175.91;;;8.97;51.22
59063;BME280;44851;45.648;9.004;2023-03-19T01:51:29;99178.69;;;9.05;52.33
59063;BME280;44851;45.648;9.004;2023-03-19T01:54:01;99174.94;;;8.98;51.97
59063;BME280;44851;45.648;9.004;2023-03-19T01:56:29;99177.09;;;8.93;51.88
59063;BME280;44851;45.648;9.004;2023-03-19T01:59:24;99166.09;;;8.90;51.30
59063;BME280;44851;45.648;9.004;2023-03-19T02:02:00;99164.41;;;9.00;51.08
59063;BME280;44851;45.648;9.004;2023-03-19T02:04:27;99167.97;;;8.99;51.50
59063;BME280;44851;45.648;9.004;2023-03-19T02:06:55;99174.34;;;9.06;50.73
59063;BME280;44851;45.648;9.004;2023-03-19T02:09:21;99174.06;;;9.09;50.87
59063;BME280;44851;45.648;9.004;2023-03-19T02:11:48;99166.19;;;8.99;50.92
59063;BME280;44851;45.648;9.004;2023-03-19T02:14:15;99172.34;;;8.98;51.13
59063;BME280;44851;45.648;9.004;2023-03-19T02:16:41;99163.78;;;8.87;50.90
59063;BME280;44851;45.648;9.004;2023-03-19T02:19:09;99168.59;;;8.91;50.88
59063;BME280;44851;45.648;9.004;2023-03-19T02:21:37;99166.31;;;8.98;50.85
59063;BME280;44851;45.648;9.004;2023-03-19T02:24:47;99170.19;;;9.03;51.05
59063;BME280;44851;45.648;9.004;2023-03-19T02:26:51;99172.13;;;9.22;51.46
59063;BME280;44851;45.648;9.004;2023-03-19T02:29:17;99178.75;;;9.15;51.21
59063;BME280;44851;45.648;9.004;2023-03-19T02:31:43;99172.41;;;9.08;51.79
59063;BME280;44851;45.648;9.004;2023-03-19T02:36:36;99183.06;;;9.05;51.13
59063;BME280;44851;45.648;9.004;2023-03-19T02:41:47;99185.47;;;8.97;51.59
59063;BME280;44851;45.648;9.004;2023-03-19T02:44:15;99175.50;;;8.81;51.59
59063;BME280;44851;45.648;9.004;2023-03-19T02:46:44;99177.22;;;8.92;51.31
59063;BME280;44851;45.648;9.004;2023-03-19T02:49:09;99180.38;;;8.74;51.22
59063;BME280;44851;45.648;9.004;2023-03-19T02:51:36;99174.16;;;8.87;51.48
59063;BME280;44851;45.648;9.004;2023-03-19T02:54:02;99163.09;;;8.73;51.05
59063;BME280;44851;45.648;9.004;2023-03-19T02:56:28;99156.47;;;8.81;51.63
59063;BME280;44851;45.648;9.004;2023-03-19T02:58:53;99165.91;;;8.82;51.15
59063;BME280;44851;45.648;9.004;2023-03-19T03:01:19;99177.72;;;8.86;50.96
59063;BME280;44851;45.648;9.004;2023-03-19T03:03:45;99186.13;;;8.78;51.46
59063;BME280;44851;45.648;9.004;2023-03-19T03:06:11;99176.84;;;8.64;51.28
59063;BME280;44851;45.648;9.004;2023-03-19T03:08:36;99181.09;;;8.65;51.26
59063;BME280;44851;45.648;9.004;2023-03-19T03:11:02;99176.03;;;8.64;51.29
59063;BME280;44851;45.648;9.004;2023-03-19T03:13:27;99178.16;;;8.59;51.51
59063;BME280;44851;45.648;9.004;2023-03-19T03:15:53;99180.31;;;8.54;51.52
59063;BME280;44851;45.648;9.004;2023-03-19T03:18:18;99168.00;;;8.56;52.35
59063;BME280;44851;45.648;9.004;2023-03-19T03:20:44;99171.53;;;8.66;51.58
59063;BME280;44851;45.648;9.004;2023-03-19T03:23:09;99172.84;;;8.60;52.07
59063;BME280;44851;45.648;9.004;2023-03-19T03:25:35;99176.22;;;8.72;51.58
59063;BME280;44851;45.648;9.004;2023-03-19T03:28:01;99185.34;;;8.66;51.86
59063;BME280;44851;45.648;9.004;2023-03-19T03:30:27;99184.66;;;8.64;51.49
59063;BME280;44851;45.648;9.004;2023-03-19T03:32:53;99201.75;;;8.67;51.72
59063;BME280;44851;45.648;9.004;2023-03-19T03:35:18;99198.34;;;8.66;52.16
59063;BME280;44851;45.648;9.004;2023-03-19T03:37:48;99192.00;;;8.48;52.56
59063;BME280;44851;45.648;9.004;2023-03-19T03:40:14;99192.84;;;8.37;52.26
59063;BME280;44851;45.648;9.004;2023-03-19T03:42:40;99188.81;;;8.44;52.43
59063;BME280;44851;45.648;9.004;2023-03-19T03:45:07;99200.97;;;8.55;51.97
59063;BME280;44851;45.648;9.004;2023-03-19T03:47:34;99201.91;;;8.54;51.78
59063;BME280;44851;45.648;9.004;2023-03-19T03:50:00;99215.13;;;8.51;51.63
59063;BME280;44851;45.648;9.004;2023-03-19T03:52:25;99203.56;;;8.44;51.93
59063;BME280;44851;45.648;9.004;2023-03-19T03:54:58;99196.38;;;8.36;52.03
59063;BME280;44851;45.648;9.004;2023-03-19T03:57:24;99185.03;;;8.48;52.32
59063;BME280;44851;45.648;9.004;2023-03-19T03:59:50;99190.34;;;8.36;52.35
59063;BME280;44851;45.648;9.004;2023-03-19T04:02:16;99200.03;;;8.45;51.99
59063;BME280;44851;45.648;9.004;2023-03-19T04:04:41;99205.72;;;8.39;52.26
59063;BME280;44851;45.648;9.004;2023-03-19T04:07:07;99204.28;;;8.35;52.38
59063;BME280;44851;45.648;9.004;2023-03-19T04:09:33;99212.56;;;8.29;52.67
59063;BME280;44851;45.648;9.004;2023-03-19T04:11:58;99212.69;;;8.38;52.85
59063;BME280;44851;45.648;9.004;2023-03-19T04:14:24;99219.28;;;8.31;52.78
59063;BME280;44851;45.648;9.004;2023-03-19T04:16:50;99210.69;;;8.19;52.47
59063;BME280;44851;45.648;9.004;2023-03-19T04:19:16;99210.94;;;8.16;52.48
59063;BME280;44851;45.648;9.004;2023-03-19T04:21:41;99208.81;;;8.10;52.95
59063;BME280;44851;45.648;9.004;2023-03-19T04:24:07;99202.91;;;8.08;53.41
59063;BME280;44851;45.648;9.004;2023-03-19T04:26:35;99205.38;;;8.10;53.01
59063;BME280;44851;45.648;9.004;2023-03-19T04:29:01;99204.53;;;8.09;52.65
59063;BME280;44851;45.648;9.004;2023-03-19T04:31:26;99209.63;;;8.11;52.78
59063;BME280;44851;45.648;9.004;2023-03-19T04:33:52;99202.78;;;7.98;53.31
59063;BME280;44851;45.648;9.004;2023-03-19T04:36:18;99208.78;;;7.99;53.42
59063;BME280;44851;45.648;9.004;2023-03-19T04:38:44;99209.66;;;7.99;53.72
59063;BME280;44851;45.648;9.004;2023-03-19T04:41:09;99209.75;;;7.98;53.75
59063;BME280;44851;45.648;9.004;2023-03-19T04:43:35;99208.09;;;7.97;53.74
59063;BME280;44851;45.648;9.004;2023-03-19T04:46:01;99200.91;;;8.12;53.18
59063;BME280;44851;45.648;9.004;2023-03-19T04:48:26;99198.88;;;8.04;53.27
59063;BME280;44851;45.648;9.004;2023-03-19T04:50:52;99196.41;;;8.03;53.10
59063;BME280;44851;45.648;9.004;2023-03-19T04:53:21;99197.97;;;8.05;53.18
59063;BME280;44851;45.648;9.004;2023-03-19T04:55:47;99208.09;;;7.97;53.40
59063;BME280;44851;45.648;9.004;2023-03-19T04:58:13;99211.84;;;8.04;53.46
59063;BME280;44851;45.648;9.004;2023-03-19T05:00:38;99213.75;;;8.02;53.89
59063;BME280;44851;45.648;9.004;2023-03-19T05:03:04;99218.47;;;7.97;53.33
59063;BME280;44851;45.648;9.004;2023-03-19T05:05:30;99215.53;;;8.02;53.59
59063;BME280;44851;45.648;9.004;2023-03-19T05:07:55;99221.53;;;7.91;53.88
59063;BME280;44851;45.648;9.004;2023-03-19T05:10:21;99224.59;;;7.73;53.90
59063;BME280;44851;45.648;9.004;2023-03-19T05:12:47;99218.59;;;7.84;54.12
59063;BME280;44851;45.648;9.004;2023-03-19T05:15:13;99224.38;;;7.99;53.64
59063;BME280;44851;45.648;9.004;2023-03-19T05:17:39;99219.44;;;7.96;54.20
59063;BME280;44851;45.648;9.004;2023-03-19T05:20:06;99216.69;;;7.75;54.16
59063;BME280;44851;45.648;9.004;2023-03-19T05:22:31;99214.09;;;7.75;54.72
59063;BME280;44851;45.648;9.004;2023-03-19T05:24:57;99205.50;;;7.75;53.78
59063;BME280;44851;45.648;9.004;2023-03-19T05:27:22;99206.63;;;7.70;54.14
59063;BME280;44851;45.648;9.004;2023-03-19T05:29:48;99215.56;;;7.66;54.32
59063;BME280;44851;45.648;9.004;2023-03-19T05:32:13;99221.72;;;7.65;54.28
59063;BME280;44851;45.648;9.004;2023-03-19T05:34:40;99228.72;;;7.76;54.45
59063;BME280;44851;45.648;9.004;2023-03-19T05:37:05;99225.28;;;7.76;53.90
59063;BME280;44851;45.648;9.004;2023-03-19T05:39:30;99223.75;;;7.73;54.81
59063;BME280;44851;45.648;9.004;2023-03-19T05:41:56;99227.63;;;7.67;54.42
59063;BME280;44851;45.648;9.004;2023-03-19T05:44:21;99240.94;;;7.63;54.41
59063;BME280;44851;45.648;9.004;2023-03-19T05:46:47;99239.16;;;7.63;55.17
59063;BME280;44851;45.648;9.004;2023-03-19T05:49:13;99249.09;;;7.69;54.85
59063;BME280;44851;45.648;9.004;2023-03-19T05:51:38;99245.06;;;7.65;55.39
59063;BME280;44851;45.648;9.004;2023-03-19T05:54:04;99242.34;;;7.67;54.77
59063;BME280;44851;45.648;9.004;2023-03-19T05:56:29;99243.47;;;7.76;54.78
59063;BME280;44851;45.648;9.004;2023-03-19T05:58:55;99246.38;;;7.71;55.35
59063;BME280;44851;45.648;9.004;2023-03-19T06:01:20;99245.03;;;7.54;55.51
59063;BME280;44851;45.648;9.004;2023-03-19T06:03:46;99253.09;;;7.62;55.80
59063;BME280;44851;45.648;9.004;2023-03-19T06:06:12;99247.81;;;7.40;56.90
59063;BME280;44851;45.648;9.004;2023-03-19T06:08:37;99250.22;;;7.54;56.16
59063;BME280;44851;45.648;9.004;2023-03-19T06:11:03;99254.72;;;7.63;56.33
59063;BME280;44851;45.648;9.004;2023-03-19T06:13:29;99253.63;;;7.79;55.80
59063;BME280;44851;45.648;9.004;2023-03-19T06:15:55;99252.31;;;7.84;55.93
59063;BME280;44851;45.648;9.004;2023-03-19T06:18:20;99262.38;;;8.00;55.73
59063;BME280;44851;45.648;9.004;2023-03-19T06:20:46;99260.25;;;8.05;55.76
59063;BME280;44851;45.648;9.004;2023-03-19T06:23:12;99257.53;;;8.18;55.55
59063;BME280;44851;45.648;9.004;2023-03-19T06:25:38;99261.69;;;8.32;55.31
59063;BME280;44851;45.648;9.004;2023-03-19T06:28:04;99266.41;;;8.27;56.14
59063;BME280;44851;45.648;9.004;2023-03-19T06:30:30;99262.97;;;8.37;55.30
59063;BME280;44851;45.648;9.004;2023-03-19T06:32:56;99266.97;;;8.41;55.30
59063;BME280;44851;45.648;9.004;2023-03-19T06:35:21;99279.13;;;8.52;55.82
59063;BME280;44851;45.648;9.004;2023-03-19T06:37:46;99277.69;;;8.70;56.35
59063;BME280;44851;45.648;9.004;2023-03-19T06:40:13;99287.13;;;8.71;55.00
59063;BME280;44851;45.648;9.004;2023-03-19T06:42:39;99279.31;;;8.83;55.64
59063;BME280;44851;45.648;9.004;2023-03-19T06:45:05;99290.44;;;8.85;56.13
59063;BME280;44851;45.648;9.004;2023-03-19T06:47:32;99285.91;;;8.98;56.17
59063;BME280;44851;45.648;9.004;2023-03-19T06:49:57;99285.69;;;9.01;55.85
59063;BME280;44851;45.648;9.004;2023-03-19T06:52:24;99290.38;;;9.07;55.40
59063;BME280;44851;45.648;9.004;2023-03-19T06:54:49;99294.34;;;9.22;55.50
59063;BME280;44851;45.648;9.004;2023-03-19T06:57:15;99290.53;;;9.26;55.54
59063;BME280;44851;45.648;9.004;2023-03-19T06:59:40;99292.13;;;9.18;55.89
59063;BME280;44851;45.648;9.004;2023-03-19T07:02:10;99292.94;;;9.18;55.40
59063;BME280;44851;45.648;9.004;2023-03-19T07:04:35;99296.00;;;9.23;55.76
59063;BME280;44851;45.648;9.004;2023-03-19T07:07:00;99294.13;;;9.57;56.82
59063;BME280;44851;45.648;9.004;2023-03-19T07:09:27;99303.91;;;9.65;55.44
59063;BME280;44851;45.648;9.004;2023-03-19T07:11:52;99311.28;;;9.81;54.81
59063;BME280;44851;45.648;9.004;2023-03-19T07:14:18;99322.00;;;9.88;54.40
59063;BME280;44851;45.648;9.004;2023-03-19T07:16:43;99321.41;;;10.05;54.63
59063;BME280;44851;45.648;9.004;2023-03-19T07:19:08;99326.63;;;10.26;55.02
59063;BME280;44851;45.648;9.004;2023-03-19T07:21:34;99323.00;;;10.48;55.48
59063;BME280;44851;45.648;9.004;2023-03-19T07:24:00;99319.19;;;10.52;54.00
59063;BME280;44851;45.648;9.004;2023-03-19T07:26:25;99323.41;;;10.74;51.83
59063;BME280;44851;45.648;9.004;2023-03-19T07:28:51;99325.53;;;10.90;51.83
59063;BME280;44851;45.648;9.004;2023-03-19T07:31:17;99320.06;;;11.12;53.55
59063;BME280;44851;45.648;9.004;2023-03-19T07:33:42;99322.59;;;11.43;53.57
59063;BME280;44851;45.648;9.004;2023-03-19T07:36:08;99327.66;;;11.44;52.28
59063;BME280;44851;45.648;9.004;2023-03-19T07:38:34;99324.66;;;11.49;52.81
59063;BME280;44851;45.648;9.004;2023-03-19T07:40:59;99327.53;;;11.46;51.69
59063;BME280;44851;45.648;9.004;2023-03-19T07:43:25;99334.25;;;11.38;52.32
59063;BME280;44851;45.648;9.004;2023-03-19T07:45:50;99334.25;;;11.77;52.09
59063;BME280;44851;45.648;9.004;2023-03-19T07:48:15;99325.88;;;11.64;50.83
59063;BME280;44851;45.648;9.004;2023-03-19T07:50:41;99332.19;;;11.90;50.30
59063;BME280;44851;45.648;9.004;2023-03-19T07:53:07;99338.78;;;11.95;50.74
59063;BME280;44851;45.648;9.004;2023-03-19T07:55:33;99346.09;;;12.01;51.42
59063;BME280;44851;45.648;9.004;2023-03-19T07:57:58;99336.03;;;12.06;50.29
59063;BME280;44851;45.648;9.004;2023-03-19T08:03:26;99345.50;;;12.26;49.80
59063;BME280;44851;45.648;9.004;2023-03-19T08:05:53;99345.19;;;12.29;49.05
59063;BME280;44851;45.648;9.004;2023-03-19T08:08:18;99343.06;;;12.52;50.03
59063;BME280;44851;45.648;9.004;2023-03-19T08:10:44;99342.19;;;12.24;49.05
59063;BME280;44851;45.648;9.004;2023-03-19T08:13:09;99347.44;;;12.52;49.90
59063;BME280;44851;45.648;9.004;2023-03-19T08:15:35;99351.66;;;12.25;50.11
59063;BME280;44851;45.648;9.004;2023-03-19T08:18:02;99354.97;;;12.27;50.54
59063;BME280;44851;45.648;9.004;2023-03-19T08:20:28;99344.22;;;12.67;50.67
59063;BME280;44851;45.648;9.004;2023-03-19T08:22:53;99352.63;;;12.71;49.45
59063;BME280;44851;45.648;9.004;2023-03-19T08:25:20;99343.72;;;12.91;49.70
59063;BME280;44851;45.648;9.004;2023-03-19T08:27:47;99349.34;;;13.24;49.67
59063;BME280;44851;45.648;9.004;2023-03-19T08:30:13;99344.25;;;13.40;49.74
59063;BME280;44851;45.648;9.004;2023-03-19T08:32:38;99353.91;;;13.58;48.71
59063;BME280;44851;45.648;9.004;2023-03-19T08:35:04;99352.84;;;13.68;49.58
59063;BME280;44851;45.648;9.004;2023-03-19T08:37:30;99352.97;;;13.59;49.02
59063;BME280;44851;45.648;9.004;2023-03-19T08:39:56;99349.50;;;13.40;48.78
59063;BME280;44851;45.648;9.004;2023-03-19T08:42:21;99359.09;;;13.50;48.46
59063;BME280;44851;45.648;9.004;2023-03-19T08:44:47;99360.19;;;13.29;47.75
59063;BME280;44851;45.648;9.004;2023-03-19T08:47:13;99360.84;;;13.31;48.87
59063;BME280;44851;45.648;9.004;2023-03-19T08:49:39;99354.59;;;13.60;48.90
59063;BME280;44851;45.648;9.004;2023-03-19T08:52:05;99360.63;;;13.42;48.30
59063;BME280;44851;45.648;9.004;2023-03-19T08:54:30;99353.91;;;13.40;47.68
59063;BME280;44851;45.648;9.004;2023-03-19T08:56:56;99357.72;;;13.45;49.70
59063;BME280;44851;45.648;9.004;2023-03-19T08:59:21;99357.19;;;13.42;46.72
59063;BME280;44851;45.648;9.004;2023-03-19T09:01:51;99357.00;;;13.71;49.57
59063;BME280;44851;45.648;9.004;2023-03-19T09:04:17;99362.13;;;13.63;48.85
59063;BME280;44851;45.648;9.004;2023-03-19T09:06:42;99366.63;;;13.88;48.85
59063;BME280;44851;45.648;9.004;2023-03-19T09:09:09;99361.91;;;13.74;50.22
59063;BME280;44851;45.648;9.004;2023-03-19T09:11:34;99363.09;;;13.97;49.04
59063;BME280;44851;45.648;9.004;2023-03-19T09:14:00;99365.63;;;14.07;48.31
59063;BME280;44851;45.648;9.004;2023-03-19T09:16:26;99365.28;;;13.84;46.83
59063;BME280;44851;45.648;9.004;2023-03-19T09:18:51;99365.66;;;13.89;48.53
59063;BME280;44851;45.648;9.004;2023-03-19T09:21:16;99366.03;;;13.77;46.50
59063;BME280;44851;45.648;9.004;2023-03-19T09:23:42;99358.25;;;13.67;47.95
59063;BME280;44851;45.648;9.004;2023-03-19T09:26:07;99371.88;;;13.70;49.59
59063;BME280;44851;45.648;9.004;2023-03-19T09:28:34;99371.38;;;14.11;48.42
59063;BME280;44851;45.648;9.004;2023-03-19T09:31:00;99366.75;;;14.22;46.64
59063;BME280;44851;45.648;9.004;2023-03-19T09:33:31;99360.28;;;14.35;44.35
59063;BME280;44851;45.648;9.004;2023-03-19T09:35:57;99357.28;;;14.30;44.79
59063;BME280;44851;45.648;9.004;2023-03-19T09:38:22;99362.56;;;14.64;44.53
59063;BME280;44851;45.648;9.004;2023-03-19T09:40:58;99370.00;;;14.76;45.82
59063;BME280;44851;45.648;9.004;2023-03-19T09:43:38;99364.94;;;14.83;44.72
59063;BME280;44851;45.648;9.004;2023-03-19T09:46:13;99360.34;;;14.77;42.87
59063;BME280;44851;45.648;9.004;2023-03-19T09:48:53;99364.25;;;14.73;44.23
59063;BME280;44851;45.648;9.004;2023-03-19T09:51:29;99358.13;;;14.98;45.19
59063;BME280;44851;45.648;9.004;2023-03-19T09:53:59;99369.66;;;15.14;43.26
59063;BME280;44851;45.648;9.004;2023-03-19T09:56:28;99369.66;;;15.22;43.03
59063;BME280;44851;45.648;9.004;2023-03-19T09:58:55;99355.50;;;15.81;45.52
59063;BME280;44851;45.648;9.004;2023-03-19T10:01:30;99362.22;;;16.33;43.14
59063;BME280;44851;45.648;9.004;2023-03-19T10:06:38;99345.16;;;16.04;43.07
59063;BME280;44851;45.648;9.004;2023-03-19T10:09:48;99353.38;;;15.85;43.12
59063;BME280;44851;45.648;9.004;2023-03-19T10:14:58;99349.09;;;15.76;44.10
59063;BME280;44851;45.648;9.004;2023-03-19T10:17:33;99344.16;;;15.65;43.80
59063;BME280;44851;45.648;9.004;2023-03-19T10:20:19;99348.94;;;15.77;42.67
59063;BME280;44851;45.648;9.004;2023-03-19T10:22:50;99346.47;;;15.76;43.76
59063;BME280;44851;45.648;9.004;2023-03-19T10:25:21;99355.03;;;15.78;41.97
59063;BME280;44851;45.648;9.004;2023-03-19T10:27:59;99339.91;;;15.72;41.43
59063;BME280;44851;45.648;9.004;2023-03-19T10:30:31;99340.53;;;15.66;42.10
59063;BME280;44851;45.648;9.004;2023-03-19T10:33:21;99336.44;;;15.63;42.26
59063;BME280;44851;45.648;9.004;2023-03-19T10:35:54;99331.34;;;15.53;43.04
59063;BME280;44851;45.648;9.004;2023-03-19T10:38:24;99334.94;;;15.61;44.32
59063;BME280;44851;45.648;9.004;2023-03-19T10:42:06;99322.47;;;15.54;42.36
59063;BME280;44851;45.648;9.004;2023-03-19T10:44:02;99336.28;;;15.56;42.71
59063;BME280;44851;45.648;9.004;2023-03-19T10:46:39;99327.41;;;15.82;42.28
59063;BME280;44851;45.648;9.004;2023-03-19T10:49:12;99327.38;;;16.06;42.94
59063;BME280;44851;45.648;9.004;2023-03-19T10:51:38;99325.41;;;16.25;42.66
59063;BME280;44851;45.648;9.004;2023-03-19T10:54:24;99327.97;;;16.49;42.11
59063;BME280;44851;45.648;9.004;2023-03-19T10:56:54;99324.09;;;17.07;41.40
59063;BME280;44851;45.648;9.004;2023-03-19T11:01:58;99319.81;;;16.83;40.31
59063;BME280;44851;45.648;9.004;2023-03-19T11:04:25;99313.13;;;16.65;40.44
59063;BME280;44851;45.648;9.004;2023-03-19T11:07:00;99323.41;;;16.43;41.24
59063;BME280;44851;45.648;9.004;2023-03-19T11:09:33;99310.16;;;16.68;40.67
59063;BME280;44851;45.648;9.004;2023-03-19T11:14:42;99309.13;;;16.77;41.03
59063;BME280;44851;45.648;9.004;2023-03-19T11:17:24;99308.03;;;16.63;41.36
59063;BME280;44851;45.648;9.004;2023-03-19T11:19:55;99300.03;;;16.48;39.53
59063;BME280;44851;45.648;9.004;2023-03-19T11:22:28;99302.69;;;16.40;39.86
59063;BME280;44851;45.648;9.004;2023-03-19T11:25:00;99300.97;;;16.64;41.63
59063;BME280;44851;45.648;9.004;2023-03-19T11:27:28;99303.47;;;16.49;39.71
59063;BME280;44851;45.648;9.004;2023-03-19T11:29:55;99306.63;;;16.44;40.24
59063;BME280;44851;45.648;9.004;2023-03-19T11:32:34;99307.56;;;16.59;39.85
59063;BME280;44851;45.648;9.004;2023-03-19T11:43:28;99296.47;;;16.17;38.83
59063;BME280;44851;45.648;9.004;2023-03-19T11:53:29;99272.34;;;17.46;38.40
59063;BME280;44851;45.648;9.004;2023-03-19T11:56:52;99267.38;;;17.28;36.26
59063;BME280;44851;45.648;9.004;2023-03-19T12:05:07;99253.72;;;17.24;37.34
59063;BME280;44851;45.648;9.004;2023-03-19T12:15:38;99238.53;;;17.11;37.78
59063;BME280;44851;45.648;9.004;2023-03-19T12:26:07;99228.88;;;17.42;38.19
59063;BME280;44851;45.648;9.004;2023-03-19T12:31:58;99212.97;;;16.89;36.59
59063;BME280;44851;45.648;9.004;2023-03-19T12:34:34;99217.53;;;16.95;38.18
59063;BME280;44851;45.648;9.004;2023-03-19T12:37:11;99214.94;;;16.87;38.86
59063;BME280;44851;45.648;9.004;2023-03-19T12:39:45;99217.84;;;17.00;39.91
59063;BME280;44851;45.648;9.004;2023-03-19T12:42:15;99209.69;;;16.87;38.79
59063;BME280;44851;45.648;9.004;2023-03-19T12:44:45;99203.50;;;16.80;39.40
59063;BME280;44851;45.648;9.004;2023-03-19T12:47:16;99208.81;;;16.95;39.55
59063;BME280;44851;45.648;9.004;2023-03-19T12:52:24;99203.81;;;16.77;38.02
59063;BME280;44851;45.648;9.004;2023-03-19T12:54:59;99206.81;;;16.74;37.62
59063;BME280;44851;45.648;9.004;2023-03-19T12:57:38;99195.63;;;16.72;38.23
59063;BME280;44851;45.648;9.004;2023-03-19T13:00:16;99193.66;;;16.74;38.09
59063;BME280;44851;45.648;9.004;2023-03-19T13:03:01;99190.38;;;16.72;38.45
59063;BME280;44851;45.648;9.004;2023-03-19T13:05:35;99191.66;;;16.76;38.78
59063;BME280;44851;45.648;9.004;2023-03-19T13:10:58;99191.06;;;16.66;37.65
59063;BME280;44851;45.648;9.004;2023-03-19T13:16:50;99195.28;;;16.75;38.33
59063;BME280;44851;45.648;9.004;2023-03-19T13:19:29;99189.75;;;16.61;38.12
59063;BME280;44851;45.648;9.004;2023-03-19T13:22:00;99190.97;;;16.82;39.74
59063;BME280;44851;45.648;9.004;2023-03-19T13:24:30;99182.72;;;16.85;38.63
59063;BME280;44851;45.648;9.004;2023-03-19T13:26:59;99184.16;;;16.65;38.59
59063;BME280;44851;45.648;9.004;2023-03-19T13:29:30;99184.34;;;16.32;38.66
59063;BME280;44851;45.648;9.004;2023-03-19T13:32:08;99184.97;;;16.34;39.20
59063;BME280;44851;45.648;9.004;2023-03-19T13:34:46;99180.63;;;16.18;39.79
59063;BME280;44851;45.648;9.004;2023-03-19T13:37:17;99187.97;;;16.31;39.49
59063;BME280;44851;45.648;9.004;2023-03-19T13:39:45;99186.47;;;16.37;38.68
59063;BME280;44851;45.648;9.004;2023-03-19T13:42:37;99186.91;;;16.40;38.06
59063;BME280;44851;45.648;9.004;2023-03-19T13:45:33;99183.03;;;16.36;38.61
59063;BME280;44851;45.648;9.004;2023-03-19T13:48:22;99181.66;;;16.40;39.58
59063;BME280;44851;45.648;9.004;2023-03-19T13:51:01;99183.53;;;16.31;38.58
59063;BME280;44851;45.648;9.004;2023-03-19T13:56:04;99175.06;;;16.44;38.23
59063;BME280;44851;45.648;9.004;2023-03-19T13:58:30;99172.34;;;16.60;39.55
59063;BME280;44851;45.648;9.004;2023-03-19T14:03:56;99172.91;;;16.48;38.62
59063;BME280;44851;45.648;9.004;2023-03-19T14:06:31;99170.69;;;16.37;38.55
59063;BME280;44851;45.648;9.004;2023-03-19T14:08:59;99162.19;;;16.18;39.21
59063;BME280;44851;45.648;9.004;2023-03-19T14:11:30;99165.94;;;16.32;39.00
59063;BME280;44851;45.648;9.004;2023-03-19T14:14:12;99167.13;;;16.21;38.46
59063;BME280;44851;45.648;9.004;2023-03-19T14:16:44;99165.63;;;16.27;39.75
59063;BME280;44851;45.648;9.004;2023-03-19T14:19:17;99153.13;;;16.29;37.98
59063;BME280;44851;45.648;9.004;2023-03-19T14:24:34;99170.75;;;16.20;38.56
59063;BME280;44851;45.648;9.004;2023-03-19T14:27:03;99154.19;;;16.43;41.82
59063;BME280;44851;45.648;9.004;2023-03-19T14:29:41;99157.00;;;16.41;38.39
59063;BME280;44851;45.648;9.004;2023-03-19T14:32:14;99162.28;;;16.41;38.96